Terminal Aerodrome Forecast
Issued by NWS

Home | Current Version | Previous Version | Graphics & Text | Print | Product List | Glossary On
Versions: 1 2 3 4 5 6 7 8 9 10 11 12 13 14
000
FTUS45 KGGW 241100
TAFSDY
TAF
KSDY 241130Z 2412/2512 26013KT 6SM -RA BKN050 WS020/29045KT
     FM241600 29018G27KT P6SM VCSH BKN080
     FM250300 29013KT P6SM BKN140
      AMD LTD TO CLD VIS AND WIND=

USA.gov is the U.S. government's official web portal to all federal, state and local government web resources and services.